Time;durP1;ratioP1;P1;durP2;ratioP2;P2;SDS_P1;SDS_P2;PMS_P1;PMS_P2;Temp;Humidity;BMP_temperature;BMP_pressure;BME280_temperature;BME280_humidity;BME280_pressure;Samples;Min_cycle;Max_cycle;Signal;HPM_P1;HPM_P2
2023/07/04 00:01:12;;;;;;;2.33;0.93;;;21.80;63.00;;;;;;5044845;28;20057;-60
2023/07/04 00:03:38;;;;;;;1.95;1.00;;;21.90;63.10;;;;;;5052048;28;20053;-60
2023/07/04 00:06:05;;;;;;;4.10;1.08;;;21.80;63.10;;;;;;5051476;28;20115;-61
2023/07/04 00:08:33;;;;;;;3.45;1.00;;;21.80;63.00;;;;;;5050432;28;20037;-61
2023/07/04 00:10:59;;;;;;;;;;;21.80;63.00;;;;;;5051820;28;20510;-61
2023/07/04 00:13:26;;;;;;;2.90;0.90;;;21.80;62.90;;;;;;5050298;28;20027;-61
2023/07/04 00:15:52;;;;;;;3.80;1.30;;;21.80;63.10;;;;;;5050513;28;20549;-61
2023/07/04 00:18:21;;;;;;;4.55;0.90;;;21.80;63.00;;;;;;5050557;28;20128;-61
2023/07/04 00:20:54;;;;;;;4.32;0.80;;;21.80;63.00;;;;;;5051516;28;20033;-61
2023/07/04 00:23:24;;;;;;;3.38;0.80;;;21.80;63.00;;;;;;5050821;28;20053;-61
2023/07/04 00:25:52;;;;;;;2.58;0.90;;;21.80;63.00;;;;;;5049542;28;20385;-61
2023/07/04 00:28:21;;;;;;;2.95;0.80;;;21.80;63.00;;;;;;5051374;28;20496;-61
2023/07/04 00:30:47;;;;;;;4.45;1.15;;;21.80;63.00;;;;;;5051408;28;20041;-61
2023/07/04 00:33:13;;;;;;;4.28;1.00;;;21.80;63.00;;;;;;5049851;28;20419;-61
2023/07/04 00:35:39;;;;;;;3.60;0.88;;;21.80;63.00;;;;;;5050837;28;20083;-61
2023/07/04 00:38:05;;;;;;;3.08;0.93;;;21.80;63.00;;;;;;5049597;28;20175;-61
2023/07/04 00:40:31;;;;;;;3.30;1.08;;;21.80;63.10;;;;;;5043481;28;20140;-61
2023/07/04 00:43:02;;;;;;;4.22;1.20;;;21.80;63.20;;;;;;5030023;28;20057;-61
2023/07/04 00:45:31;;;;;;;3.35;1.00;;;21.80;63.10;;;;;;5041434;28;20051;-61
2023/07/04 00:48:00;;;;;;;2.38;1.00;;;21.70;63.00;;;;;;5053813;28;20076;-61
2023/07/04 00:50:29;;;;;;;2.92;1.00;;;21.70;63.10;;;;;;5053481;28;20041;-61
2023/07/04 00:52:55;;;;;;;4.63;0.93;;;21.70;63.00;;;;;;5037464;28;20049;-61
2023/07/04 00:55:21;;;;;;;4.63;0.88;;;21.70;63.00;;;;;;5053552;28;20400;-61
2023/07/04 00:57:47;;;;;;;3.20;0.82;;;21.70;63.00;;;;;;5052865;28;20037;-61
2023/07/04 01:00:17;;;;;;;2.22;0.90;;;21.70;63.00;;;;;;5055088;28;20064;-61
2023/07/04 01:02:47;;;;;;;3.30;0.80;;;21.70;63.00;;;;;;5055250;28;20186;-61
2023/07/04 01:05:23;;;;;;;2.38;0.63;;;21.70;63.00;;;;;;5052965;28;20045;-61
2023/07/04 01:08:02;;;;;;;2.10;0.75;;;21.70;63.10;;;;;;5032351;28;20040;-61
2023/07/04 01:10:32;;;;;;;3.75;1.17;;;21.70;63.10;;;;;;5022712;28;20123;-61
2023/07/04 01:12:58;;;;;;;2.63;0.80;;;21.70;63.10;;;;;;5053597;28;20153;-61
2023/07/04 01:15:24;;;;;;;3.30;0.70;;;21.70;63.10;;;;;;5054587;28;20075;-61
2023/07/04 01:17:51;;;;;;;2.58;0.85;;;21.70;63.10;;;;;;5052709;28;20037;-61
2023/07/04 01:20:17;;;;;;;2.60;0.90;;;21.70;63.10;;;;;;5053623;28;20063;-61
2023/07/04 01:23:01;;;;;;;3.20;1.05;;;21.70;63.10;;;;;;5053444;28;20060;-61
2023/07/04 01:25:35;;;;;;;4.22;1.00;;;21.60;63.00;;;;;;5048637;28;20104;-61
2023/07/04 01:28:03;;;;;;;3.53;1.00;;;21.70;63.10;;;;;;5017326;28;20085;-61
2023/07/04 01:30:30;;;;;;;3.63;1.00;;;21.70;63.10;;;;;;5041647;28;20080;-61
2023/07/04 01:32:59;;;;;;;3.15;0.73;;;21.60;63.10;;;;;;5052229;28;20491;-61
2023/07/04 01:35:25;;;;;;;3.47;0.88;;;21.60;63.00;;;;;;5053036;28;20049;-61
2023/07/04 01:37:51;;;;;;;2.97;0.93;;;21.70;63.10;;;;;;5051756;28;20444;-61
2023/07/04 01:40:16;;;;;;;3.17;0.77;;;21.60;63.00;;;;;;5050563;28;20041;-61
2023/07/04 01:42:42;;;;;;;3.28;1.00;;;21.60;63.10;;;;;;5033515;28;20083;-61
2023/07/04 01:45:08;;;;;;;2.55;0.80;;;21.60;63.10;;;;;;5032798;28;20073;-61
2023/07/04 01:47:34;;;;;;;3.22;0.93;;;21.60;63.00;;;;;;5016257;28;20057;-61
2023/07/04 01:50:00;;;;;;;2.97;0.77;;;21.60;63.00;;;;;;5033979;28;20053;-61
2023/07/04 01:52:26;;;;;;;2.55;0.82;;;21.60;63.70;;;;;;5034019;28;20045;-61
2023/07/04 01:54:52;;;;;;;2.72;1.00;;;21.60;63.10;;;;;;5033694;28;20046;-61
2023/07/04 01:57:17;;;;;;;4.38;1.00;;;21.60;63.10;;;;;;5033736;28;20056;-61
2023/07/04 01:59:43;;;;;;;3.30;0.80;;;21.60;63.10;;;;;;5033724;28;20087;-61
2023/07/04 02:02:09;;;;;;;2.33;0.82;;;21.60;63.10;;;;;;5048822;28;20073;-61
2023/07/04 02:04:34;;;;;;;4.15;1.10;;;21.60;63.10;;;;;;5053353;28;20120;-61
2023/07/04 02:07:00;;;;;;;1.88;0.65;;;21.60;63.10;;;;;;5038294;28;20046;-61
2023/07/04 02:09:25;;;;;;;2.30;1.00;;;21.60;63.10;;;;;;5032728;28;20057;-61
2023/07/04 02:11:51;;;;;;;1.83;0.68;;;21.60;63.00;;;;;;5033017;28;20081;-61
2023/07/04 02:14:17;;;;;;;2.65;0.70;;;21.60;63.00;;;;;;5033578;28;20041;-61
2023/07/04 02:16:43;;;;;;;1.92;0.82;;;21.60;63.00;;;;;;5045707;28;20041;-60
2023/07/04 02:19:09;;;;;;;1.88;0.70;;;21.50;63.00;;;;;;5051709;28;20037;-61
2023/07/04 02:21:35;;;;;;;2.88;0.88;;;21.60;63.00;;;;;;5053026;28;20120;-61
2023/07/04 02:24:01;;;;;;;3.33;0.80;;;21.60;63.00;;;;;;5053303;28;20395;-61
2023/07/04 02:26:27;;;;;;;2.83;1.00;;;21.60;63.00;;;;;;5043664;28;20471;-61
2023/07/04 02:28:53;;;;;;;2.33;0.90;;;21.50;63.00;;;;;;5033923;28;20041;-60
2023/07/04 02:31:19;;;;;;;2.60;1.00;;;21.60;63.10;;;;;;5033493;28;20050;-62
2023/07/04 02:33:44;;;;;;;1.73;0.70;;;21.50;63.00;;;;;;5033373;28;20045;-61
2023/07/04 02:36:11;;;;;;;2.22;0.85;;;21.60;63.10;;;;;;5031661;28;20045;-61
2023/07/04 02:38:40;;;;;;;2.33;0.90;;;21.50;63.10;;;;;;5033473;28;20045;-61
2023/07/04 02:41:06;;;;;;;3.15;0.90;;;21.50;63.00;;;;;;5031627;28;20041;-61
2023/07/04 02:43:33;;;;;;;2.83;1.00;;;21.50;63.10;;;;;;5032882;28;20034;-61
2023/07/04 02:45:59;;;;;;;3.58;0.80;;;21.50;63.10;;;;;;5032731;28;20045;-61
2023/07/04 02:48:25;;;;;;;1.60;0.55;;;21.50;63.10;;;;;;5032029;28;20056;-61
2023/07/04 02:50:51;;;;;;;1.92;0.80;;;21.50;63.00;;;;;;5031226;28;20122;-61
2023/07/04 02:53:22;;;;;;;2.35;0.90;;;21.50;63.00;;;;;;5031577;28;20428;-61
2023/07/04 02:55:51;;;;;;;2.55;0.85;;;21.50;63.10;;;;;;5034382;28;20041;-61
2023/07/04 02:58:17;;;;;;;2.08;0.68;;;21.50;63.10;;;;;;5053219;28;20037;-61
2023/07/04 03:00:43;;;;;;;2.20;0.70;;;21.50;63.10;;;;;;5052321;28;20491;-61
2023/07/04 03:03:13;;;;;;;2.25;0.90;;;21.50;63.00;;;;;;5052259;28;20041;-61
2023/07/04 03:05:39;;;;;;;3.75;1.00;;;21.50;63.10;;;;;;5052633;28;20040;-61
2023/07/04 03:08:05;;;;;;;2.08;0.70;;;21.50;63.10;;;;;;5051472;28;20036;-61
2023/07/04 03:10:30;;;;;;;2.25;0.90;;;21.50;63.10;;;;;;5052375;28;20549;-61
2023/07/04 03:12:56;;;;;;;1.92;0.70;;;21.50;63.10;;;;;;5050832;28;20128;-61
2023/07/04 03:15:22;;;;;;;2.40;0.80;;;21.50;63.10;;;;;;5052427;28;20045;-61
2023/07/04 03:17:48;;;;;;;1.88;0.65;;;21.50;63.10;;;;;;5050387;28;20072;-61
2023/07/04 03:20:13;;;;;;;3.22;0.88;;;21.40;63.00;;;;;;5050249;28;20048;-61
2023/07/04 03:22:39;;;;;;;2.60;0.88;;;21.40;63.00;;;;;;5048236;28;20043;-61
2023/07/04 03:25:05;;;;;;;3.55;0.80;;;21.50;63.10;;;;;;5051666;28;20048;-60
2023/07/04 03:27:31;;;;;;;3.03;0.82;;;21.40;63.00;;;;;;5052346;28;20395;-60
2023/07/04 03:29:57;;;;;;;2.70;0.80;;;21.40;63.10;;;;;;5052193;28;20045;-60
2023/07/04 03:32:22;;;;;;;2.90;0.85;;;21.40;63.10;;;;;;5051238;28;20458;-61
2023/07/04 03:34:48;;;;;;;2.70;1.02;;;21.40;63.20;;;;;;5050375;28;20045;-60
2023/07/04 03:37:14;;;;;;;1.77;0.70;;;21.50;63.20;;;;;;5050826;28;20059;-61
2023/07/04 03:39:39;;;;;;;2.13;0.60;;;21.40;63.10;;;;;;5051965;28;20033;-61
2023/07/04 03:42:05;;;;;;;3.35;0.98;;;21.40;63.10;;;;;;5050141;28;20069;-61
2023/07/04 03:44:31;;;;;;;2.55;1.00;;;21.40;63.20;;;;;;5052621;28;20040;-61
2023/07/04 03:46:56;;;;;;;2.50;0.90;;;21.40;63.10;;;;;;5051371;28;20495;-61
2023/07/04 03:49:22;;;;;;;1.65;0.63;;;21.40;63.20;;;;;;5051941;28;20179;-60
2023/07/04 03:51:48;;;;;;;2.00;0.80;;;21.40;63.10;;;;;;5050111;28;20041;-61
2023/07/04 03:54:13;;;;;;;5.15;1.00;;;21.40;63.10;;;;;;5051895;28;20086;-61
2023/07/04 03:56:39;;;;;;;1.98;0.70;;;21.40;63.10;;;;;;5051773;28;20377;-61
2023/07/04 03:59:04;;;;;;;2.08;0.60;;;21.40;63.20;;;;;;5051500;28;20044;-61
2023/07/04 04:01:30;;;;;;;2.60;0.80;;;21.40;63.20;;;;;;5050824;28;20044;-61
2023/07/04 04:03:55;;;;;;;2.30;0.77;;;21.40;63.20;;;;;;5038266;28;20036;-61
2023/07/04 04:06:21;;;;;;;2.03;0.75;;;21.40;63.20;;;;;;5029730;28;20604;-61
2023/07/04 04:08:47;;;;;;;1.63;0.57;;;21.40;63.20;;;;;;5032072;28;20050;-60
2023/07/04 04:11:31;;;;;;;3.05;0.70;;;21.40;63.20;;;;;;5035421;28;20090;-61
2023/07/04 04:14:15;;;;;;;3.15;0.88;;;21.40;63.20;;;;;;5051477;28;20096;-61
2023/07/04 04:16:41;;;;;;;3.75;0.80;;;21.30;63.10;;;;;;5051837;28;20128;-60
2023/07/04 04:19:07;;;;;;;1.70;0.80;;;21.40;63.20;;;;;;5051248;28;20829;-60
2023/07/04 04:21:32;;;;;;;3.25;0.82;;;21.40;63.20;;;;;;5055407;28;20087;-61
2023/07/04 04:23:58;;;;;;;2.78;0.80;;;21.40;63.20;;;;;;5055644;28;20048;-61
2023/07/04 04:26:24;;;;;;;1.58;0.70;;;21.30;63.20;;;;;;5055566;28;20048;-60
2023/07/04 04:28:49;;;;;;;1.13;0.65;;;21.40;63.30;;;;;;5053633;28;20033;-60
2023/07/04 04:31:15;;;;;;;2.58;0.73;;;21.30;63.20;;;;;;5053985;28;20099;-60
2023/07/04 04:33:41;;;;;;;2.63;0.57;;;21.40;63.30;;;;;;5055581;28;20072;-60
2023/07/04 04:36:06;;;;;;;2.47;0.77;;;21.40;63.30;;;;;;5055197;28;20094;-60
2023/07/04 04:38:32;;;;;;;2.42;0.80;;;21.40;63.30;;;;;;5055410;28;20041;-61
2023/07/04 04:41:04;;;;;;;2.80;0.70;;;21.30;63.30;;;;;;5054133;28;20044;-60
2023/07/04 04:43:32;;;;;;;2.97;0.93;;;21.30;63.30;;;;;;5055262;28;20539;-61
2023/07/04 04:45:59;;;;;;;1.73;0.70;;;21.30;63.30;;;;;;5053856;28;20060;-60
2023/07/04 04:48:29;;;;;;;3.28;0.75;;;21.30;63.30;;;;;;5053314;28;20041;-61
2023/07/04 04:50:58;;;;;;;3.20;0.90;;;21.30;63.40;;;;;;5055206;28;20049;-61
2023/07/04 04:53:25;;;;;;;5.05;0.85;;;21.30;63.40;;;;;;5053364;28;20087;-61
2023/07/04 04:55:51;;;;;;;2.50;0.73;;;21.30;63.40;;;;;;5054387;28;20041;-61
2023/07/04 04:58:17;;;;;;;2.90;0.77;;;21.30;63.40;;;;;;5037299;28;20090;-61
2023/07/04 05:00:44;;;;;;;3.60;1.08;;;21.30;63.40;;;;;;5035282;28;20041;-61
2023/07/04 05:03:10;;;;;;;2.08;0.90;;;21.30;63.40;;;;;;5034273;28;20510;-60
2023/07/04 05:05:36;;;;;;;1.95;0.75;;;21.30;63.40;;;;;;5035400;28;20050;-60
2023/07/04 05:08:01;;;;;;;1.13;0.60;;;21.30;63.40;;;;;;5033644;28;20049;-61
2023/07/04 05:10:27;;;;;;;2.15;0.70;;;21.30;63.50;;;;;;5034747;28;22420;-60
2023/07/04 05:12:53;;;;;;;2.35;0.90;;;21.30;63.40;;;;;;5034574;28;20052;-61
2023/07/04 05:15:18;;;;;;;3.65;0.80;;;21.30;63.40;;;;;;5035083;28;20139;-61
2023/07/04 05:17:44;;;;;;;1.98;0.70;;;21.30;63.40;;;;;;5034397;28;20048;-61
2023/07/04 05:20:14;;;;;;;2.70;1.00;;;21.30;63.50;;;;;;5034787;28;20381;-61
2023/07/04 05:22:40;;;;;;;2.63;0.88;;;21.30;63.50;;;;;;5034666;28;20053;-61
2023/07/04 05:25:06;;;;;;;2.50;0.80;;;21.30;63.50;;;;;;5032552;28;20095;-61
2023/07/04 05:27:32;;;;;;;1.80;0.77;;;21.30;63.50;;;;;;5034790;28;20103;-61
2023/07/04 05:29:57;;;;;;;2.70;1.00;;;21.30;63.50;;;;;;5034190;28;20069;-61
2023/07/04 05:32:23;;;;;;;1.90;0.82;;;21.30;63.50;;;;;;5039849;28;20052;-61
2023/07/04 05:34:49;;;;;;;2.78;0.75;;;21.30;63.50;;;;;;5050547;28;20081;-61
2023/07/04 05:37:15;;;;;;;2.78;0.80;;;21.30;63.50;;;;;;5054053;28;20110;-61
2023/07/04 05:39:41;;;;;;;2.90;0.70;;;21.20;63.50;;;;;;5053568;28;20064;-61
2023/07/04 05:42:06;;;;;;;3.45;1.10;;;21.30;63.50;;;;;;5053814;28;20150;-60
2023/07/04 05:44:32;;;;;;;2.53;0.90;;;21.30;63.50;;;;;;5054148;28;20069;-63
2023/07/04 05:46:57;;;;;;;2.55;1.00;;;21.30;63.50;;;;;;5053714;28;20110;-60
2023/07/04 05:49:23;;;;;;;2.70;0.70;;;21.30;63.50;;;;;;5052482;28;20077;-61
2023/07/04 05:51:48;;;;;;;2.83;0.90;;;21.30;63.60;;;;;;5052332;28;20400;-61
2023/07/04 05:54:14;;;;;;;2.05;0.73;;;21.30;63.50;;;;;;5034404;28;20073;-61
2023/07/04 05:56:40;;;;;;;2.97;0.80;;;21.30;63.50;;;;;;5033594;28;20443;-60
2023/07/04 05:59:05;;;;;;;2.90;1.00;;;21.30;63.50;;;;;;5033239;28;20434;-60
2023/07/04 06:01:33;;;;;;;3.20;0.60;;;21.30;63.60;;;;;;5034096;28;20179;-60
2023/07/04 06:03:59;;;;;;;2.20;0.60;;;21.30;63.60;;;;;;5051347;28;20053;-60
2023/07/04 06:06:30;;;;;;;3.97;0.95;;;21.30;63.60;;;;;;5053418;28;20068;-60
2023/07/04 06:08:56;;;;;;;3.67;1.00;;;21.30;63.70;;;;;;5050973;28;20094;-60
2023/07/04 06:11:24;;;;;;;2.85;0.80;;;21.30;63.70;;;;;;5053283;28;20539;-60
2023/07/04 06:13:50;;;;;;;3.63;0.90;;;21.30;63.70;;;;;;5036625;28;20500;-60
2023/07/04 06:16:15;;;;;;;2.85;0.68;;;21.30;63.80;;;;;;5033907;28;20045;-61
2023/07/04 06:18:43;;;;;;;2.47;0.80;;;21.30;63.80;;;;;;5032031;28;20056;-61
2023/07/04 06:21:22;;;;;;;3.22;0.70;;;21.30;63.90;;;;;;5031437;28;20076;-61
2023/07/04 06:23:49;;;;;;;2.42;0.70;;;21.40;63.90;;;;;;5048261;28;20041;-61
2023/07/04 06:26:15;;;;;;;2.05;1.00;;;21.30;63.80;;;;;;5051815;28;20049;-63
2023/07/04 06:28:41;;;;;;;1.92;0.60;;;21.30;63.90;;;;;;5051826;28;20053;-59
2023/07/04 06:31:11;;;;;;;4.57;0.77;;;21.30;63.90;;;;;;5052656;28;20068;-60
2023/07/04 06:33:37;;;;;;;3.47;0.70;;;21.40;64.00;;;;;;5039414;28;20092;-60
2023/07/04 06:36:03;;;;;;;2.60;0.88;;;21.40;64.10;;;;;;5032949;28;20045;-60
2023/07/04 06:38:29;;;;;;;2.40;0.73;;;21.40;64.10;;;;;;5043739;28;20099;-59
2023/07/04 06:41:01;;;;;;;2.85;0.93;;;21.40;64.20;;;;;;5052042;28;20057;-60
2023/07/04 06:43:27;;;;;;;3.95;0.98;;;21.40;64.30;;;;;;5052741;28;20077;-60
2023/07/04 06:45:54;;;;;;;3.58;0.80;;;21.40;64.30;;;;;;5051166;28;20083;-60
2023/07/04 06:48:23;;;;;;;2.58;0.70;;;21.40;64.30;;;;;;5052350;28;20476;-60
2023/07/04 06:50:56;;;;;;;1.65;0.70;;;21.50;64.40;;;;;;5052587;28;20048;-59
2023/07/04 06:53:22;;;;;;;2.30;0.70;;;21.50;64.50;;;;;;5052610;28;20056;-60
2023/07/04 06:55:47;;;;;;;2.92;0.90;;;21.50;64.40;;;;;;5050541;28;20396;-60
2023/07/04 06:58:15;;;;;;;3.42;0.90;;;21.50;64.50;;;;;;5052432;28;20178;-60
2023/07/04 07:00:41;;;;;;;2.28;0.70;;;21.50;64.50;;;;;;5052367;28;20068;-61
2023/07/04 07:03:06;;;;;;;2.15;0.70;;;21.50;64.50;;;;;;5051749;28;20519;-61
2023/07/04 07:05:36;;;;;;;2.97;0.98;;;21.60;64.50;;;;;;5050729;28;20175;-61
2023/07/04 07:08:02;;;;;;;4.75;0.90;;;21.60;64.40;;;;;;5051916;28;20036;-61
2023/07/04 07:10:27;;;;;;;2.25;0.90;;;21.60;64.40;;;;;;5051612;28;20396;-59
2023/07/04 07:12:53;;;;;;;2.40;0.90;;;21.60;64.50;;;;;;5046032;28;20051;-59
2023/07/04 07:15:19;;;;;;;2.50;0.80;;;21.60;64.40;;;;;;5032596;28;20168;-59
2023/07/04 07:17:44;;;;;;;1.75;0.80;;;21.60;64.40;;;;;;5037296;28;20052;-60
2023/07/04 07:20:10;;;;;;;2.13;0.80;;;21.60;64.50;;;;;;5049864;28;20116;-61
2023/07/04 07:22:36;;;;;;;2.95;0.88;;;21.60;64.50;;;;;;5052752;28;20041;-61
2023/07/04 07:25:02;;;;;;;3.50;1.00;;;21.60;64.40;;;;;;5050289;28;20045;-60
2023/07/04 07:27:27;;;;;;;3.20;0.60;;;21.60;64.40;;;;;;5050861;28;20443;-61
2023/07/04 07:29:53;;;;;;;2.38;0.70;;;21.60;64.40;;;;;;5051521;28;20484;-60
2023/07/04 07:32:19;;;;;;;4.22;0.73;;;21.60;64.30;;;;;;5050489;28;20072;-61
2023/07/04 07:34:44;;;;;;;3.38;0.70;;;21.60;64.40;;;;;;5052141;28;20518;-60
2023/07/04 07:37:12;;;;;;;2.70;0.70;;;21.60;64.40;;;;;;5051449;28;20502;-60
2023/07/04 07:39:38;;;;;;;3.10;0.80;;;21.60;64.40;;;;;;5051615;28;20033;-59
2023/07/04 07:42:03;;;;;;;4.65;1.10;;;21.70;64.50;;;;;;5050991;28;20060;-60
2023/07/04 07:44:29;;;;;;;3.28;1.00;;;21.70;64.60;;;;;;5050613;28;20068;-60
2023/07/04 07:46:55;;;;;;;2.90;0.95;;;21.70;64.60;;;;;;5052000;28;20040;-61
2023/07/04 07:49:20;;;;;;;4.15;1.10;;;21.70;64.70;;;;;;5052006;28;20048;-60
2023/07/04 07:51:46;;;;;;;4.72;1.17;;;21.80;64.70;;;;;;5050085;28;20041;-61
2023/07/04 07:54:13;;;;;;;4.50;1.02;;;21.80;64.70;;;;;;5051758;28;20086;-62
2023/07/04 07:56:40;;;;;;;5.07;1.10;;;21.80;64.70;;;;;;5051897;28;20053;-60
2023/07/04 07:59:06;;;;;;;2.77;0.80;;;21.80;64.70;;;;;;5051574;28;20230;-65
2023/07/04 08:01:33;;;;;;;4.82;0.90;;;21.80;64.60;;;;;;5051955;28;20041;-62
2023/07/04 08:03:59;;;;;;;5.75;0.98;;;21.90;64.50;;;;;;5051276;28;20423;-62
2023/07/04 08:06:39;;;;;;;1.98;0.65;;;21.90;64.40;;;;;;5051418;28;20043;-62
2023/07/04 08:09:06;;;;;;;5.55;1.00;;;21.90;64.30;;;;;;5051834;28;20056;-62
2023/07/04 08:11:32;;;;;;;3.40;0.80;;;21.90;64.20;;;;;;5052230;28;20048;-62
2023/07/04 08:13:58;;;;;;;3.28;1.10;;;21.90;64.20;;;;;;5049616;28;20306;-62
2023/07/04 08:16:26;;;;;;;4.10;1.02;;;21.90;64.20;;;;;;5050576;28;20114;-62
2023/07/04 08:18:51;;;;;;;4.60;1.05;;;21.90;64.20;;;;;;5051920;28;20110;-63
2023/07/04 08:21:17;;;;;;;4.03;0.95;;;21.90;64.20;;;;;;5051368;28;20049;-62
2023/07/04 08:23:42;;;;;;;5.80;1.00;;;21.90;64.10;;;;;;5052028;28;20039;-62
2023/07/04 08:26:17;;;;;;;4.65;0.98;;;21.90;64.10;;;;;;5050355;28;20045;-62
2023/07/04 08:28:43;;;;;;;2.47;0.73;;;21.90;64.10;;;;;;5051675;28;20546;-62
2023/07/04 08:31:10;;;;;;;4.45;1.35;;;21.90;64.10;;;;;;5051048;28;20091;-62
2023/07/04 08:33:36;;;;;;;3.25;1.00;;;21.90;64.10;;;;;;5051144;28;20063;-62
2023/07/04 08:36:03;;;;;;;3.63;0.98;;;21.90;64.00;;;;;;5051549;28;20040;-62
2023/07/04 08:38:29;;;;;;;2.97;0.80;;;22.00;64.00;;;;;;5052160;28;20087;-63
2023/07/04 08:40:55;;;;;;;4.30;1.00;;;22.00;63.90;;;;;;5050947;28;20037;-62
2023/07/04 08:43:28;;;;;;;3.30;0.98;;;22.00;63.90;;;;;;5051929;28;20123;-63
2023/07/04 08:45:54;;;;;;;5.50;0.90;;;22.10;63.90;;;;;;5050073;28;20049;-63
2023/07/04 08:48:20;;;;;;;3.70;1.00;;;22.00;63.80;;;;;;5050234;28;20041;-62
2023/07/04 08:50:46;;;;;;;3.28;0.82;;;22.10;63.80;;;;;;5050733;28;20452;-63
2023/07/04 08:53:19;;;;;;;3.42;0.98;;;22.10;63.80;;;;;;5033979;28;20055;-63
2023/07/04 08:56:31;;;;;;;5.85;0.90;;;22.10;63.70;;;;;;5051146;28;20048;-63
2023/07/04 08:59:08;;;;;;;3.97;1.00;;;22.10;63.60;;;;;;4993335;28;20053;-63
2023/07/04 09:01:52;;;;;;;3.45;1.02;;;22.10;64.20;;;;;;5026865;28;20052;-63
2023/07/04 09:04:26;;;;;;;2.97;0.88;;;22.10;63.50;;;;;;5052089;28;20134;-63
2023/07/04 09:07:03;;;;;;;4.85;1.00;;;22.10;63.50;;;;;;5052053;28;20067;-63
2023/07/04 09:10:04;;;;;;;4.32;0.90;;;22.10;63.40;;;;;;5037444;28;20045;-62
2023/07/04 09:12:31;;;;;;;1.92;0.70;;;22.10;63.40;;;;;;5053447;28;20105;-63
2023/07/04 09:15:03;;;;;;;2.75;1.13;;;22.10;63.40;;;;;;5053717;28;20120;-63
2023/07/04 09:17:31;;;;;;;4.05;0.88;;;22.00;63.40;;;;;;5053490;28;20068;-63
2023/07/04 09:19:57;;;;;;;3.45;1.10;;;22.00;63.30;;;;;;5054644;28;20044;-62
2023/07/04 09:22:23;;;;;;;2.70;0.85;;;22.00;63.30;;;;;;5053698;28;20043;-63
2023/07/04 09:24:48;;;;;;;2.60;0.90;;;22.00;63.30;;;;;;5053298;28;20087;-61
2023/07/04 09:27:14;;;;;;;4.22;1.00;;;22.00;63.30;;;;;;5053789;28;20389;-62
2023/07/04 09:29:40;;;;;;;3.25;0.85;;;21.90;63.30;;;;;;5047063;28;20034;-60
2023/07/04 09:32:07;;;;;;;3.22;1.20;;;21.90;63.20;;;;;;5024348;28;20589;-61
2023/07/04 09:34:46;;;;;;;5.53;1.05;;;21.90;62.90;;;;;;5035722;28;20373;-60
2023/07/04 09:37:15;;;;;;;6.43;1.10;;;21.90;62.70;;;;;;5035716;28;20075;-61
2023/07/04 09:39:45;;;;;;;5.20;1.60;;;21.90;62.60;;;;;;5053709;28;20129;-61
2023/07/04 09:42:11;;;;;;;6.65;1.23;;;21.90;62.70;;;;;;5053305;28;20037;-61
2023/07/04 09:44:37;;;;;;;6.45;1.13;;;21.90;62.70;;;;;;5052033;28;20044;-61
2023/07/04 09:47:04;;;;;;;7.00;1.30;;;21.90;62.70;;;;;;5052091;28;20074;-60
2023/07/04 09:49:35;;;;;;;4.38;1.20;;;21.90;62.80;;;;;;5052959;28;20037;-62
2023/07/04 09:52:13;;;;;;;8.90;1.38;;;21.90;62.90;;;;;;5052950;28;20049;-62
2023/07/04 09:54:40;;;;;;;7.90;1.23;;;21.90;63.00;;;;;;5054234;28;20040;-61
2023/07/04 09:57:26;;;;;;;7.45;1.48;;;21.90;63.20;;;;;;5054070;28;20059;-62
2023/07/04 09:59:53;;;;;;;9.27;1.40;;;21.90;63.30;;;;;;5053276;28;20077;-62
2023/07/04 10:02:24;;;;;;;6.63;1.25;;;21.90;63.30;;;;;;5052738;28;20628;-61
2023/07/04 10:04:50;;;;;;;7.45;1.30;;;21.90;63.40;;;;;;5051617;28;20071;-59
2023/07/04 10:07:19;;;;;;;3.47;1.23;;;21.90;63.50;;;;;;5052759;28;20461;-61
2023/07/04 10:09:52;;;;;;;5.35;1.27;;;21.90;63.50;;;;;;5052601;28;20053;-61
2023/07/04 10:12:18;;;;;;;4.25;1.30;;;22.00;63.50;;;;;;5030163;28;20124;-60
2023/07/04 10:14:55;;;;;;;4.78;1.10;;;22.00;63.50;;;;;;5015648;28;20053;-60
2023/07/04 10:17:28;;;;;;;3.17;1.08;;;22.00;63.50;;;;;;5050428;28;20116;-60
2023/07/04 10:19:59;;;;;;;6.22;1.42;;;22.00;63.50;;;;;;5052438;28;20041;-60
2023/07/04 10:22:33;;;;;;;8.73;1.30;;;22.00;63.50;;;;;;5035269;28;20121;-60
2023/07/04 10:24:59;;;;;;;5.75;1.20;;;22.10;63.60;;;;;;5051652;28;20048;-61
2023/07/04 10:27:35;;;;;;;5.60;1.40;;;22.10;63.50;;;;;;5051351;28;20087;-60
2023/07/04 10:30:03;;;;;;;3.88;1.10;;;22.10;63.60;;;;;;5051612;28;20091;-60
2023/07/04 10:32:28;;;;;;;6.72;1.35;;;22.10;63.60;;;;;;5034870;28;20106;-61
2023/07/04 10:34:54;;;;;;;3.78;1.05;;;22.20;63.50;;;;;;5051620;28;20041;-61
2023/07/04 10:37:31;;;;;;;4.53;1.10;;;22.20;63.40;;;;;;5050947;28;20048;-61
2023/07/04 10:40:04;;;;;;;4.32;1.08;;;22.20;63.30;;;;;;5050813;28;20045;-61
2023/07/04 10:42:36;;;;;;;3.67;1.10;;;22.20;63.30;;;;;;5050910;28;20491;-61
2023/07/04 10:45:01;;;;;;;3.40;1.08;;;22.20;63.20;;;;;;5052697;28;20402;-59
2023/07/04 10:47:34;;;;;;;7.20;1.25;;;22.20;63.20;;;;;;5051432;28;20041;-60
2023/07/04 10:50:02;;;;;;;5.35;1.05;;;22.20;63.20;;;;;;5031879;28;20049;-60
2023/07/04 10:52:32;;;;;;;4.00;1.10;;;22.20;63.20;;;;;;5044957;28;20595;-58
2023/07/04 10:54:59;;;;;;;6.63;1.27;;;22.20;63.30;;;;;;5042201;28;20041;-58
2023/07/04 10:57:32;;;;;;;7.38;1.20;;;22.20;63.30;;;;;;5042079;28;20403;-58
2023/07/04 11:00:07;;;;;;;4.22;1.30;;;22.20;63.40;;;;;;5047782;28;20095;-59
2023/07/04 11:02:39;;;;;;;5.95;1.60;;;22.20;63.50;;;;;;5041564;28;20064;-60
2023/07/04 11:05:13;;;;;;;6.43;1.35;;;22.20;63.60;;;;;;5042833;28;20057;-60
2023/07/04 11:07:39;;;;;;;3.55;1.40;;;22.20;63.60;;;;;;5045782;28;20037;-60
2023/07/04 11:10:06;;;;;;;4.13;1.20;;;22.20;63.60;;;;;;5047722;28;20059;-60
2023/07/04 11:12:33;;;;;;;4.72;1.27;;;22.20;63.70;;;;;;5044892;28;20068;-60
2023/07/04 11:15:23;;;;;;;3.97;1.10;;;22.20;63.80;;;;;;5014027;28;20052;-60
2023/07/04 11:17:48;;;;;;;4.53;1.15;;;22.20;63.80;;;;;;5039631;28;20542;-60
2023/07/04 11:20:17;;;;;;;3.65;1.02;;;22.20;63.80;;;;;;5036175;28;20056;-61
2023/07/04 11:22:51;;;;;;;5.57;1.10;;;22.20;63.90;;;;;;5041251;28;20045;-61
2023/07/04 11:25:53;;;;;;;4.35;1.20;;;22.20;63.90;;;;;;5039895;28;20103;-61
2023/07/04 11:28:34;;;;;;;7.68;1.67;;;22.20;63.90;;;;;;5044413;28;20046;-61
2023/07/04 11:31:17;;;;;;;6.40;1.23;;;22.20;63.80;;;;;;5042556;28;20111;-61
2023/07/04 11:33:49;;;;;;;10.38;1.77;;;22.10;63.20;;;;;;5043516;28;20500;-61
2023/07/04 11:36:50;;;;;;;9.68;1.73;;;22.10;62.50;;;;;;5040830;28;20065;-60
2023/07/04 11:39:21;;;;;;;11.23;1.77;;;22.10;62.00;;;;;;5001950;28;20053;-62
2023/07/04 11:41:47;;;;;;;10.15;1.70;;;22.10;61.60;;;;;;5039090;28;20128;-63
2023/07/04 11:44:23;;;;;;;10.13;1.70;;;22.10;61.40;;;;;;5039692;28;20167;-61
2023/07/04 11:47:10;;;;;;;10.27;1.85;;;22.10;61.10;;;;;;5043404;28;20068;-63
2023/07/04 11:49:35;;;;;;;15.18;2.00;;;22.20;61.10;;;;;;5035611;28;20045;-61
2023/07/04 11:52:27;;;;;;;8.20;1.65;;;22.20;61.30;;;;;;5040440;28;20443;-61
2023/07/04 11:55:01;;;;;;;9.07;2.00;;;22.20;61.30;;;;;;5041318;28;20041;-61
2023/07/04 11:57:55;;;;;;;7.97;1.65;;;22.20;61.30;;;;;;5022370;28;20048;-60
2023/07/04 12:00:33;;;;;;;9.18;2.03;;;22.20;61.40;;;;;;5038231;28;20433;-60
2023/07/04 12:03:17;;;;;;;11.23;2.20;;;22.20;61.40;;;;;;5035103;28;20064;-60
2023/07/04 12:05:52;;;;;;;11.90;1.90;;;22.20;61.30;;;;;;5037553;28;21374;-60
2023/07/04 12:08:40;;;;;;;9.40;1.95;;;22.20;61.50;;;;;;5038553;28;20065;-60
2023/07/04 12:11:07;;;;;;;;;;;22.30;61.60;;;;;;5036465;28;20814;-61
2023/07/04 12:13:34;;;;;;;9.15;1.60;;;22.20;61.60;;;;;;5038344;28;19920;-61
2023/07/04 12:16:00;;;;;;;6.63;1.45;;;22.30;61.70;;;;;;5042963;28;20048;-62
2023/07/04 12:18:27;;;;;;;7.60;1.52;;;22.30;61.70;;;;;;5034700;28;20412;-61
2023/07/04 12:20:53;;;;;;;11.27;1.58;;;22.30;61.80;;;;;;5035315;28;20041;-61
2023/07/04 12:23:19;;;;;;;13.00;1.75;;;22.30;61.80;;;;;;5038335;28;20034;-61
2023/07/04 12:25:47;;;;;;;11.15;2.30;;;22.30;61.70;;;;;;5035487;28;20072;-61
2023/07/04 12:28:13;;;;;;;8.07;1.98;;;22.40;62.10;;;;;;5041231;28;20044;-60
2023/07/04 12:30:40;;;;;;;8.10;1.42;;;22.40;61.80;;;;;;5044085;28;20176;-61
2023/07/04 12:33:17;;;;;;;8.95;1.83;;;22.40;61.80;;;;;;5037412;28;20067;-60
2023/07/04 12:35:46;;;;;;;10.52;1.77;;;22.50;61.80;;;;;;5042022;28;20053;-61
2023/07/04 12:38:12;;;;;;;6.70;1.38;;;22.50;61.80;;;;;;5021572;28;20111;-60
2023/07/04 12:40:37;;;;;;;7.50;1.65;;;22.50;61.80;;;;;;5047746;28;20496;-61
2023/07/04 12:43:06;;;;;;;5.78;1.50;;;22.50;61.80;;;;;;5024616;28;20048;-61
2023/07/04 12:45:31;;;;;;;7.07;1.42;;;22.50;61.90;;;;;;5041015;28;20038;-60
2023/07/04 12:48:00;;;;;;;5.72;1.33;;;22.50;61.90;;;;;;5041898;28;20045;-61
2023/07/04 12:50:26;;;;;;;7.57;1.92;;;22.50;61.90;;;;;;5041735;28;20457;-61
2023/07/04 12:52:51;;;;;;;6.85;2.05;;;22.50;62.00;;;;;;5045076;28;20120;-61
2023/07/04 12:55:34;;;;;;;6.60;1.40;;;22.60;62.10;;;;;;5043343;28;20040;-61